createdAt,value
2023-02-18T00:12:25.572Z,1.50
2023-02-18T00:27:27.553Z,1.40
2023-02-18T00:42:29.500Z,1.50
2023-02-18T00:57:31.541Z,1.42
2023-02-18T01:12:33.590Z,1.02
2023-02-18T01:27:35.780Z,1.17
2023-02-18T01:42:37.750Z,1.10
2023-02-18T01:57:39.665Z,1.20
2023-02-18T02:13:07.372Z,1.73
2023-02-18T02:28:49.106Z,1.87
2023-02-18T02:44:24.461Z,1.45
2023-02-18T02:59:27.278Z,0.98
2023-02-18T03:14:57.482Z,1.17
2023-02-18T03:30:10.934Z,1.40
2023-02-18T03:45:12.882Z,1.10
2023-02-18T04:00:15.073Z,1.23
2023-02-18T04:15:17.088Z,1.08
2023-02-18T04:30:19.277Z,1.63
2023-02-18T04:45:21.205Z,1.55
2023-02-18T05:00:23.228Z,1.05
2023-02-18T05:15:25.461Z,1.20
2023-02-18T05:30:27.380Z,1.08
2023-02-18T05:45:29.329Z,1.33
2023-02-18T06:00:32.148Z,1.20
2023-02-18T06:15:34.244Z,1.25
2023-02-18T06:30:36.392Z,1.02
2023-02-18T06:45:39.565Z,1.25
2023-02-18T07:00:41.761Z,1.42
2023-02-18T07:15:43.751Z,1.88
2023-02-18T07:30:45.689Z,1.30
2023-02-18T07:45:48.135Z,1.35
2023-02-18T08:00:50.739Z,1.83
2023-02-18T08:15:58.042Z,1.60
2023-02-18T08:31:00.373Z,1.70
2023-02-18T08:46:02.691Z,2.05
2023-02-18T09:01:09.862Z,1.50
2023-02-18T09:16:18.537Z,1.23
2023-02-18T09:31:23.362Z,1.40
2023-02-18T09:46:43.104Z,1.30
2023-02-18T10:01:48.056Z,1.48
2023-02-18T10:16:52.329Z,1.58
2023-02-18T10:32:08.477Z,1.75
2023-02-18T10:47:35.445Z,2.50
2023-02-18T11:02:38.363Z,2.05
2023-02-18T11:17:41.115Z,2.45
2023-02-18T11:32:44.868Z,2.85
2023-02-18T11:48:00.431Z,2.83
2023-02-18T12:03:08.487Z,3.78
2023-02-18T12:18:48.474Z,4.80
2023-02-18T12:33:59.189Z,4.25
2023-02-18T12:49:07.391Z,3.40
2023-02-18T13:04:27.970Z,4.20
2023-02-18T13:19:44.357Z,5.75
2023-02-18T13:35:00.452Z,10.02
2023-02-18T13:50:25.641Z,7.85
2023-02-18T14:05:40.385Z,6.38
2023-02-18T14:20:51.436Z,8.73
2023-02-18T14:36:06.179Z,11.60
2023-02-18T14:51:08.865Z,9.88
2023-02-18T15:06:35.098Z,9.90
2023-02-18T15:21:41.072Z,10.43
2023-02-18T15:36:43.011Z,3.38
2023-02-18T15:51:45.277Z,2.15
2023-02-18T16:06:50.630Z,2.35
2023-02-18T16:21:52.745Z,3.75
2023-02-18T16:37:14.070Z,2.72
2023-02-18T16:52:18.087Z,2.80
2023-02-18T17:07:19.998Z,2.17
2023-02-18T17:22:21.959Z,2.30
2023-02-18T17:37:23.879Z,1.40
2023-02-18T17:52:31.090Z,1.80
2023-02-18T18:07:33.102Z,2.22
2023-02-18T18:22:35.153Z,2.25
2023-02-18T18:37:37.141Z,2.40
2023-02-18T18:52:40.509Z,2.47
2023-02-18T19:07:42.455Z,2.70
2023-02-18T19:22:44.477Z,4.10
2023-02-18T19:37:47.120Z,4.90
2023-02-18T19:52:55.337Z,1.88
2023-02-18T20:07:57.436Z,2.30
2023-02-18T20:22:59.449Z,2.00
2023-02-18T20:38:01.468Z,2.50
2023-02-18T20:53:03.525Z,3.38
2023-02-18T21:08:05.532Z,3.03
2023-02-18T21:23:08.244Z,2.38
2023-02-18T21:38:10.628Z,2.40
2023-02-18T21:53:12.707Z,2.30
2023-02-18T22:08:14.653Z,3.00
2023-02-18T22:23:18.727Z,4.50
2023-02-18T22:38:20.646Z,4.03
2023-02-18T22:53:22.588Z,3.88
2023-02-18T23:08:24.955Z,5.65
2023-02-18T23:23:26.876Z,5.90
2023-02-18T23:38:28.839Z,5.38
2023-02-18T23:53:33.046Z,4.10
